WetterOnline ( https://www.wetteronline.de )

Wetter aktuell Vogelsberg (in 700m)

Aktuelles Wetter: Hoherodskopf/Vogelsberg (743m)

6-stündlich | Neueste Meldungen
Ortszeit Temperatur Wetter
Mo, 20.05. 2:00 12.7° C bedeckt
So, 19.05. 20:00 15.8° C wolkig
So, 19.05. 14:00 17.8° C wolkig
So, 19.05. 8:00 12.4° C bedeckt
So, 19.05. 2:00 11.4° C Regen
Sa, 18.05. 20:00 16.4° C wolkig
Sa, 18.05. 14:00 15.5° C wolkig
Sa, 18.05. 8:00 11.7° C wolkig
Ortszeit Temperatur Wetter
Mo, 20.05. 6:00 12.8° C bewölkt
Mo, 20.05. 5:50 12.8° C bewölkt
Mo, 20.05. 5:40 12.6° C bewölkt
Mo, 20.05. 5:30 12.4° C wolkig
Mo, 20.05. 5:20 12.4° C wolkig
Mo, 20.05. 5:10 12.5° C wolkig
Mo, 20.05. 5:00 12.3° C bewölkt
Mo, 20.05. 4:30 12.4° C bewölkt
Mo, 20.05. 4:00 12.3° C bewölkt
Mo, 20.05. 3:30 13.4° C bedeckt
Mo, 20.05. 3:00 13.1° C bedeckt
Ortszeit Relative Feuchte Sichtweite
Mo, 20.05. 2:00 72% 40 km
So, 19.05. 20:00 61% 50 km
So, 19.05. 14:00 47% 30 km
So, 19.05. 8:00 72% 55 km
So, 19.05. 2:00 70% 65 km
Sa, 18.05. 20:00 54% 60 km
Sa, 18.05. 14:00 60% 40 km
Sa, 18.05. 8:00 72% 50 km
Ortszeit Relative Feuchte Sichtweite
Mo, 20.05. 6:00 71% -
Mo, 20.05. 5:50 71% -
Mo, 20.05. 5:40 74% -
Mo, 20.05. 5:30 75% 35 km
Mo, 20.05. 5:20 75% -
Mo, 20.05. 5:10 74% -
Mo, 20.05. 5:00 73% 40 km
Mo, 20.05. 4:30 73% 45 km
Mo, 20.05. 4:00 72% 40 km
Mo, 20.05. 3:30 63% 60 km
Mo, 20.05. 3:00 66% 60 km
Ortszeit Niederschlagsmenge Niederschlagsart
Mo, 20.05. 2:00 0.0 l/m2 in 6 Std. -
So, 19.05. 20:00 0.1 l/m2 in 12 Std. Regen
So, 19.05. 14:00 0.0 l/m2 in 6 Std. -
So, 19.05. 8:00 1 l/m2 in 12 Std. -
So, 19.05. 2:00 1 l/m2 in 6 Std. Regen
Sa, 18.05. 20:00 0.0 l/m2 in 12 Std. -
Sa, 18.05. 14:00 0.0 l/m2 in 6 Std. -
Sa, 18.05. 8:00 2 l/m2 in 12 Std. -
Ortszeit Niederschlagsmenge Niederschlagsart
Mo, 20.05. 6:00 0.0 l/m2 in 1 Std. -
Mo, 20.05. 5:50 keine Meldung -
Mo, 20.05. 5:40 keine Meldung -
Mo, 20.05. 5:30 0.0 l/m2 in 1 Std. -
Mo, 20.05. 5:20 keine Meldung -
Mo, 20.05. 5:10 keine Meldung -
Mo, 20.05. 5:00 0.0 l/m2 in 1 Std. Regen
Mo, 20.05. 4:30 0.0 l/m2 in 1 Std. -
Mo, 20.05. 4:00 0.1 l/m2 in 1 Std. Regen
Mo, 20.05. 3:30 0.0 l/m2 in 1 Std. -
Mo, 20.05. 3:00 0.0 l/m2 in 1 Std. -
Ortszeit Stärke Spitze Richtung
km/h Bft. km/h Grad Sektor
Mo, 20.05. 2:00 13 3 31 60° NO
So, 19.05. 20:00 11 2 29 40° NO
So, 19.05. 14:00 9 2 26 130° SO
So, 19.05. 8:00 14 3 29 50° NO
So, 19.05. 2:00 11 2 29 20° N
Sa, 18.05. 20:00 9 2 22 60° NO
Sa, 18.05. 14:00 4 1 14 270° W
Sa, 18.05. 8:00 7 2 22 90° O
Ortszeit Stärke Spitze Richtung
km/h Bft. km/h Grad Sektor
Mo, 20.05. 6:00 15 3 30 30° NO
Mo, 20.05. 5:50 15 3 - 30° NO
Mo, 20.05. 5:40 13 3 - 30° NO
Mo, 20.05. 5:30 11 2 22 30° NO
Mo, 20.05. 5:20 11 2 - 30° NO
Mo, 20.05. 5:10 13 3 - 40° NO
Mo, 20.05. 5:00 11 2 22 40° NO
Mo, 20.05. 4:30 11 2 22 30° NO
Mo, 20.05. 4:00 11 2 24 30° NO
Mo, 20.05. 3:30 15 3 24 50° NO
Mo, 20.05. 3:00 15 3 26 50° NO
Ortszeit Untergrenze Bedeckung Gattung
total tief tief mittel hoch
Mo, 20.05. 2:00 1800 m 8/8 8/8 - - -
So, 19.05. 20:00 8100 m 7/8 0/8 - - -
So, 19.05. 14:00 1470 m 7/8 4/8 - - -
So, 19.05. 8:00 3000 m 8/8 8/8 - - -
So, 19.05. 2:00 780 m 8/8 4/8 - - -
Sa, 18.05. 20:00 1410 m 7/8 5/8 - - -
Sa, 18.05. 14:00 990 m 7/8 4/8 - - -
Sa, 18.05. 8:00 3600 m 8/8 8/8 - - -
Ortszeit Bedeckungsgrad in Achtel und Wolkenuntergrenze
Mo, 20.05. 6:00 7(2400m) 8(3300m)
Mo, 20.05. 5:50 7(2400m) 8(3300m)
Mo, 20.05. 5:40 6(2400m) 7(3300m) 8(5100m)
Mo, 20.05. 5:30 3(2100m) 7(3300m) 8(5100m)
Mo, 20.05. 5:20 3(2100m) 7(3300m) 8(5100m)
Mo, 20.05. 5:10 1(1800m) 7(3000m) 8(5400m)
Mo, 20.05. 5:00 7(1800m) 8(3000m) 8(5100m)
Mo, 20.05. 4:30 6(1800m) 8(6600m) 8(9000m)
Mo, 20.05. 4:00 4(1800m) 8(6900m) 8(8700m)
Mo, 20.05. 3:30 6(1800m) 8(2400m) 8(6900m)
Mo, 20.05. 3:00 6(1800m) 8(2400m)
Ortszeit Luftdruck NN (hPa) Tendenz (hPa in 3 Std.)
Mo, 20.05. 2:00 1004 - 0,5
So, 19.05. 20:00 1003 - 0,2
So, 19.05. 14:00 1002 - 0,5
So, 19.05. 8:00 1004 + 0,2
So, 19.05. 2:00 1005 - 0,8
Sa, 18.05. 20:00 1004 - 0,2
Sa, 18.05. 14:00 1005 - 0,1
Sa, 18.05. 8:00 1006 + 0,1
Ortszeit Luftdruck NN (hPa) Tendenz (hPa in 3 Std.)
Mo, 20.05. 6:00 1003 - 0,3
Mo, 20.05. 5:50 1003 keine Meldung
Mo, 20.05. 5:40 1003 keine Meldung
Mo, 20.05. 5:30 1003 - 0,5
Mo, 20.05. 5:20 1003 keine Meldung
Mo, 20.05. 5:10 1003 keine Meldung
Mo, 20.05. 5:00 1003 - 0,6
Mo, 20.05. 4:30 1003 - 0,7
Mo, 20.05. 4:00 1003 - 0,7
Mo, 20.05. 3:30 1003 - 0,9
Mo, 20.05. 3:00 1003 - 0,7
Ortszeit Schneehöhe (cm)
Mo, 20.05. 2:00 -
So, 19.05. 20:00 -
So, 19.05. 14:00 -
So, 19.05. 8:00 -
So, 19.05. 2:00 -
Sa, 18.05. 20:00 -
Sa, 18.05. 14:00 -
Sa, 18.05. 8:00 -
Ortszeit Schneehöhe (cm)
Mo, 20.05. 6:00 -
Mo, 20.05. 5:50 -
Mo, 20.05. 5:40 -
Mo, 20.05. 5:30 -
Mo, 20.05. 5:20 -
Mo, 20.05. 5:10 -
Mo, 20.05. 5:00 -
Mo, 20.05. 4:30 -
Mo, 20.05. 4:00 -
Mo, 20.05. 3:30 -
Mo, 20.05. 3:00 -
Link zu dieser Seite / Seite empfehlen

Das Wetter in ...